METAR AND TAF INFORMATION
METAR FOR LTBS
ADDS - METARS form results

(2035 UTC 19 October 2018)
Data provider http://aviationweather.gov/metar/data/
 
METAR text: LTBS 192020Z 03006KT CAVOK 18/16 Q1014 NOSIG RMK RWY19 33005KT
Conditions at: LTBS (DALAMAN (COMMUNE, TR) observed 2020 UTC 19 October 2018
Temperature: 18.0°C (64°F)
Dewpoint: 16.0°C (61°F) [RH = 88%]
Pressure (altimeter): 29.94 inches Hg (1014.0 mb)
Winds: from the NNE (30 degrees) at 7 MPH (6 knots; 3.1 m/s)
Visibility: 6 or more miles (10+ km)
Ceiling: ceiling and visibility are OK
Clouds: unknown
Weather: no significant weather observed at this time

METAR text: LTBS 191950Z 06005KT CAVOK 18/16 Q1014 NOSIG RMK RWY19 34005KT
Conditions at: LTBS (DALAMAN (COMMUNE, TR) observed 1950 UTC 19 October 2018
Temperature: 18.0°C (64°F)
Dewpoint: 16.0°C (61°F) [RH = 88%]
Pressure (altimeter): 29.94 inches Hg (1014.0 mb)
Winds: from the ENE (60 degrees) at 6 MPH (5 knots; 2.6 m/s)
Visibility: 6 or more miles (10+ km)
Ceiling: ceiling and visibility are OK
Clouds: unknown
Weather: no significant weather observed at this time

Forecast for: LTBS (DALAMAN (COMMUNE, TR)
Text: TAF LTBS 191640Z 1918/2018 VRB02KT CAVOK
Forecast period: 1800 UTC 19 October 2018 to 0700 UTC 20 October 2018
Forecast type: FROM: standard forecast or significant change
Winds: variable direction winds at 2 MPH (2 knots; 1.0 m/s)
Visibility: 6 or more miles 10+ km)
Ceiling: unknown
Clouds: missing
Weather: NSW  (no significant weather)
Text: BECMG 2007/2009 22012KT FEW030
Forecast period: 0700 to 1500 UTC 20 October 2018
Forecast type: BECOMING: Conditions expected to become as follows by 0900 UTC 20 October 2018
Winds: from the SW (220 degrees) at 14 MPH (12 knots; 6.2 m/s)
Visibility: 6 or more miles 10+ km)
Ceiling: at least 12,000 feet AGL
Clouds: few clouds at 3000 feet AGL
Weather: NSW  (no significant weather)
Text: BECMG 2015/2017 VRB02KT CAVOK
Forecast period: 1500 to 1800 UTC 20 October 2018
Forecast type: BECOMING: Conditions expected to become as follows by 1700 UTC 20 October 2018
Winds: variable direction winds at 2 MPH (2 knots; 1.0 m/s)
Visibility: 6 or more miles 10+ km)
Ceiling: unknown
Clouds: missing
Weather: NSW  (no significant weather)

 AIRPORT MAP

 RUNWAY INFORMATION
Runway 01 Runway length 9842 ft Runway width 148 ft
Runway elevation 10 ft Runway displaced threshold 0 ft Runway heading 15
Runway 19 Runway length 9842 ft Runway width 148 ft
Runway elevation 20 ft Runway displaced threshold 0 ft Runway heading 195

 AIRPORT FREQUENCIES
Type APP Name APP Frequency 119.225 MHZ
Type ATIS Name ATIS Frequency 127.35 MHZ
Type GND Name GND Frequency 121.9 MHZ
Type TWR Name TWR Frequency 118.5 MHZ

 AIRPORT NEAR NAVIGATION AIDS
Type TACAN Name Dalaman Frequency 115300 KHZ
Type VOR-DME Name Dalaman Frequency 114700 KHZ
Type NDB Name Dalaman Frequency 346 KHZ



Copyright © 2011 - 2018 BirgenAir Virtual Airlines. All rights reserved. Developed by Goktug Unver